createdAt,value
2023-03-26T00:01:15.743Z,97389.16
2023-03-26T00:03:47.070Z,97378.13
2023-03-26T00:06:16.035Z,97377.09
2023-03-26T00:08:45.229Z,97368.31
2023-03-26T00:11:14.745Z,97364.34
2023-03-26T00:13:43.886Z,97360.34
2023-03-26T00:16:12.276Z,97340.56
2023-03-26T00:18:40.518Z,97316.84
2023-03-26T00:21:08.083Z,97312.56
2023-03-26T00:23:35.892Z,97315.16
2023-03-26T00:26:03.957Z,97295.38
2023-03-26T00:28:31.005Z,97315.66
2023-03-26T00:31:01.195Z,97321.94
2023-03-26T00:33:28.590Z,97322.50
2023-03-26T00:36:01.297Z,97313.03
2023-03-26T00:38:29.194Z,97311.66
2023-03-26T00:40:59.352Z,97306.66
2023-03-26T00:43:26.588Z,97284.53
2023-03-26T00:45:54.893Z,97289.75
2023-03-26T00:48:31.568Z,97297.63
2023-03-26T00:51:06.446Z,97303.94
2023-03-26T00:53:33.599Z,97303.88
2023-03-26T00:56:01.865Z,97309.75
2023-03-26T00:58:30.098Z,97313.72
2023-03-26T01:00:58.853Z,97315.75
2023-03-26T01:03:29.395Z,97323.53
2023-03-26T01:06:04.690Z,97317.25
2023-03-26T01:08:43.483Z,97308.84
2023-03-26T01:11:14.735Z,97316.25
2023-03-26T01:13:52.345Z,97336.34
2023-03-26T01:16:38.182Z,97346.09
2023-03-26T01:19:24.121Z,97346.38
2023-03-26T01:21:50.747Z,97347.97
2023-03-26T01:24:17.822Z,97357.97
2023-03-26T01:27:09.262Z,97360.59
2023-03-26T01:29:54.159Z,97358.53
2023-03-26T01:32:39.662Z,97362.31
2023-03-26T01:35:21.313Z,97366.84
2023-03-26T01:38:23.465Z,97398.78
2023-03-26T01:41:00.807Z,97404.31
2023-03-26T01:43:27.405Z,97387.81
2023-03-26T01:45:57.611Z,97370.31
2023-03-26T01:48:38.194Z,97362.94
2023-03-26T01:51:07.167Z,97373.38
2023-03-26T01:53:48.814Z,97365.19
2023-03-26T01:56:32.137Z,97371.22
2023-03-26T01:59:26.497Z,97365.41
2023-03-26T02:02:23.130Z,97363.00
2023-03-26T02:05:00.332Z,97364.09
2023-03-26T02:07:38.059Z,97349.03
2023-03-26T02:10:14.866Z,97349.34
2023-03-26T02:12:44.670Z,97338.56
2023-03-26T02:15:13.199Z,97333.53
2023-03-26T02:17:40.648Z,97341.44
2023-03-26T02:20:10.543Z,97339.28
2023-03-26T02:22:41.541Z,97341.16
2023-03-26T02:25:09.973Z,97328.31
2023-03-26T02:27:38.263Z,97309.66
2023-03-26T02:30:07.459Z,97321.22
2023-03-26T02:32:35.092Z,97342.75
2023-03-26T02:35:02.603Z,97353.47
2023-03-26T02:37:30.457Z,97355.28
2023-03-26T02:39:57.075Z,97349.69
2023-03-26T02:42:23.772Z,97358.63
2023-03-26T02:44:50.415Z,97361.81
2023-03-26T02:47:17.088Z,97362.81
2023-03-26T02:49:44.058Z,97360.66
2023-03-26T02:52:10.964Z,97374.34
2023-03-26T02:54:38.329Z,97375.16
2023-03-26T02:57:06.161Z,97365.94
2023-03-26T02:59:32.786Z,97370.91
2023-03-26T03:01:59.416Z,97365.88
2023-03-26T03:04:26.055Z,97367.47
2023-03-26T03:06:57.448Z,97369.56
2023-03-26T03:09:28.985Z,97363.94
2023-03-26T03:11:55.787Z,97382.66
2023-03-26T03:14:22.469Z,97381.84
2023-03-26T03:16:49.224Z,97385.84
2023-03-26T03:19:16.157Z,97387.69
2023-03-26T03:21:43.034Z,97384.28
2023-03-26T03:24:11.626Z,97394.06
2023-03-26T03:26:38.380Z,97393.81
2023-03-26T03:29:05.021Z,97380.78
2023-03-26T03:31:32.391Z,97394.00
2023-03-26T03:33:59.080Z,97401.06
2023-03-26T03:36:29.326Z,97403.94
2023-03-26T03:39:02.312Z,97401.06
2023-03-26T03:41:29.786Z,97417.94
2023-03-26T03:43:56.741Z,97423.47
2023-03-26T03:46:23.394Z,97431.34
2023-03-26T03:48:50.160Z,97430.31
2023-03-26T03:51:18.521Z,97434.75
2023-03-26T03:53:46.262Z,97426.66
2023-03-26T03:56:14.764Z,97426.06
2023-03-26T03:58:42.360Z,97430.81
2023-03-26T04:01:09.173Z,97432.16
2023-03-26T04:03:38.958Z,97437.09
2023-03-26T04:06:07.411Z,97437.50
2023-03-26T04:08:34.896Z,97451.19
2023-03-26T04:11:01.776Z,97464.63
2023-03-26T04:13:28.893Z,97460.63
2023-03-26T04:15:56.919Z,97464.72
2023-03-26T04:18:23.963Z,97468.13
2023-03-26T04:20:50.849Z,97463.34
2023-03-26T04:23:18.948Z,97474.94
2023-03-26T04:25:50.079Z,97485.44
2023-03-26T04:28:30.953Z,97475.50
2023-03-26T04:31:03.938Z,97482.72
2023-03-26T04:33:32.827Z,97487.81
2023-03-26T04:36:04.374Z,97480.25
2023-03-26T04:38:35.709Z,97475.38
2023-03-26T04:41:04.421Z,97479.03
2023-03-26T04:43:36.629Z,97494.78
2023-03-26T04:46:05.894Z,97501.03
2023-03-26T04:48:33.922Z,97511.75
2023-03-26T04:51:01.391Z,97509.00
2023-03-26T04:53:28.894Z,97509.50
2023-03-26T04:56:30.757Z,97507.41
2023-03-26T04:59:00.029Z,97500.84
2023-03-26T05:01:30.918Z,97501.16
2023-03-26T05:03:58.805Z,97504.69
2023-03-26T05:06:28.760Z,97499.91
2023-03-26T05:08:55.475Z,97506.22
2023-03-26T05:11:23.592Z,97505.19
2023-03-26T05:13:51.914Z,97516.53
2023-03-26T05:16:18.565Z,97507.97
2023-03-26T05:18:46.579Z,97508.00
2023-03-26T05:21:13.332Z,97498.56
2023-03-26T05:23:39.928Z,97500.28
2023-03-26T05:26:07.766Z,97498.69
2023-03-26T05:28:36.095Z,97505.34
2023-03-26T05:31:02.870Z,97505.91
2023-03-26T05:33:29.906Z,97510.53
2023-03-26T05:36:09.329Z,97501.91
2023-03-26T05:38:37.238Z,97498.81
2023-03-26T05:41:06.910Z,97495.53
2023-03-26T05:43:34.181Z,97504.38
2023-03-26T05:46:00.864Z,97498.97
2023-03-26T05:48:28.003Z,97505.47
2023-03-26T05:50:56.943Z,97504.72
2023-03-26T05:53:26.504Z,97504.56
2023-03-26T05:55:58.909Z,97510.44
2023-03-26T05:58:30.416Z,97513.13
2023-03-26T06:01:05.693Z,97523.75
2023-03-26T06:03:33.322Z,97525.44
2023-03-26T06:06:00.199Z,97525.47
2023-03-26T06:08:27.364Z,97536.09
2023-03-26T06:11:01.613Z,97539.88
2023-03-26T06:13:29.547Z,97540.16
2023-03-26T06:15:58.277Z,97552.63
2023-03-26T06:18:25.733Z,97559.28
2023-03-26T06:20:53.014Z,97560.31
2023-03-26T06:23:20.015Z,97560.09
2023-03-26T06:25:47.828Z,97562.75
2023-03-26T06:28:14.734Z,97567.81
2023-03-26T06:30:41.604Z,97567.59
2023-03-26T06:33:08.502Z,97570.25
2023-03-26T06:35:35.343Z,97575.03
2023-03-26T06:38:03.465Z,97579.28
2023-03-26T06:40:30.653Z,97578.78
2023-03-26T06:43:09.940Z,97589.41
2023-03-26T06:45:39.481Z,97589.13
2023-03-26T06:48:06.636Z,97589.41
2023-03-26T06:50:33.340Z,97602.69
2023-03-26T06:53:00.929Z,97611.72
2023-03-26T06:55:28.097Z,97614.63
2023-03-26T06:57:56.973Z,97614.38
2023-03-26T07:00:24.081Z,97613.84
2023-03-26T07:02:51.063Z,97621.84
2023-03-26T07:05:17.998Z,97631.66
2023-03-26T07:07:45.952Z,97635.13
2023-03-26T07:10:14.051Z,97638.59
2023-03-26T07:12:43.564Z,97642.03
2023-03-26T07:15:10.705Z,97651.59
2023-03-26T07:17:38.741Z,97651.63
2023-03-26T07:20:08.063Z,97647.91
2023-03-26T07:22:35.826Z,97653.22
2023-03-26T07:25:02.681Z,97655.34
2023-03-26T07:27:37.822Z,97663.34
2023-03-26T07:30:31.709Z,97679.53
2023-03-26T07:33:01.353Z,97687.75
2023-03-26T07:35:37.039Z,97683.53
2023-03-26T07:38:21.980Z,97682.97
2023-03-26T07:41:24.138Z,97686.69
2023-03-26T07:44:20.290Z,97707.41
2023-03-26T07:46:48.340Z,97703.13
2023-03-26T07:49:17.927Z,97698.84
2023-03-26T07:51:44.976Z,97698.28
2023-03-26T07:54:12.335Z,97701.44
2023-03-26T07:56:54.961Z,97704.09
2023-03-26T07:59:39.425Z,97703.53
2023-03-26T08:02:21.510Z,97716.28
2023-03-26T08:05:19.782Z,97711.75
2023-03-26T08:08:05.758Z,97724.25
2023-03-26T08:11:02.945Z,97734.09
2023-03-26T08:13:41.665Z,97742.34
2023-03-26T08:16:19.430Z,97746.59
2023-03-26T08:18:56.577Z,97762.00
2023-03-26T08:21:31.820Z,97764.88
2023-03-26T08:24:36.609Z,97773.13
2023-03-26T08:27:15.651Z,97783.19
2023-03-26T08:30:02.214Z,97789.03
2023-03-26T08:32:30.641Z,97799.13
2023-03-26T08:34:57.664Z,97808.16
2023-03-26T08:37:25.568Z,97807.94
2023-03-26T08:39:52.222Z,97815.59
2023-03-26T08:42:58.807Z,97810.50
2023-03-26T08:45:54.449Z,97829.44
2023-03-26T08:48:39.355Z,97836.34
2023-03-26T08:51:12.881Z,97840.06
2023-03-26T08:53:40.209Z,97829.41
2023-03-26T08:56:09.840Z,97841.66
2023-03-26T08:58:46.872Z,97848.31
2023-03-26T09:01:32.044Z,97849.59
2023-03-26T09:04:27.975Z,97853.34
2023-03-26T09:07:19.081Z,97859.78
2023-03-26T09:10:02.119Z,97853.59
2023-03-26T09:12:59.381Z,97845.28
2023-03-26T09:16:06.845Z,97843.59
2023-03-26T09:18:53.640Z,97853.13
2023-03-26T09:21:25.591Z,97852.91
2023-03-26T09:24:25.552Z,97858.97
2023-03-26T09:27:26.199Z,97870.44
2023-03-26T09:30:26.766Z,97882.47
2023-03-26T09:33:11.893Z,97887.25
2023-03-26T09:36:16.127Z,97897.66
2023-03-26T09:39:11.062Z,97899.47
2023-03-26T09:42:05.022Z,97911.41
2023-03-26T09:45:02.599Z,97921.53
2023-03-26T09:47:51.921Z,97930.31
2023-03-26T09:50:24.381Z,97932.44
2023-03-26T09:52:57.489Z,97920.19
2023-03-26T09:56:12.290Z,97929.81
2023-03-26T09:59:11.886Z,97933.50
2023-03-26T10:01:57.720Z,97935.59
2023-03-26T10:04:33.558Z,97939.84
2023-03-26T10:07:55.947Z,97952.63
2023-03-26T10:10:52.386Z,97966.56
2023-03-26T10:13:40.748Z,97968.91
2023-03-26T10:16:28.660Z,97965.94
2023-03-26T10:19:01.453Z,97967.81
2023-03-26T10:21:51.002Z,97969.91
2023-03-26T10:24:58.977Z,97980.63
2023-03-26T10:27:34.789Z,97983.81
2023-03-26T10:30:23.229Z,97986.16
2023-03-26T10:33:12.844Z,97983.81
2023-03-26T10:35:56.558Z,97993.94
2023-03-26T10:38:53.281Z,97987.28
2023-03-26T10:41:41.329Z,97992.81
2023-03-26T10:44:29.709Z,97988.28
2023-03-26T10:47:25.358Z,98000.34
2023-03-26T10:50:24.738Z,98000.63
2023-03-26T10:53:07.225Z,98000.06
2023-03-26T10:55:47.397Z,98001.09
2023-03-26T10:58:21.810Z,98003.22
2023-03-26T11:01:14.891Z,98005.94
2023-03-26T11:03:54.451Z,98009.69
2023-03-26T11:06:28.500Z,98004.00
2023-03-26T11:08:58.228Z,98007.97
2023-03-26T11:11:26.229Z,98006.31
2023-03-26T11:14:24.324Z,98006.72
2023-03-26T11:17:14.469Z,98008.25
2023-03-26T11:19:55.394Z,98006.91
2023-03-26T11:22:27.966Z,98013.06
2023-03-26T11:25:23.548Z,98005.47
2023-03-26T11:28:25.777Z,98016.63
2023-03-26T11:30:58.627Z,98020.38
2023-03-26T11:33:37.452Z,98016.63
2023-03-26T11:36:24.542Z,98020.03
2023-03-26T11:38:53.139Z,98022.22
2023-03-26T11:41:28.218Z,98032.66
2023-03-26T11:44:03.912Z,98029.94
2023-03-26T11:46:33.762Z,98028.38
2023-03-26T11:49:05.031Z,98023.44
2023-03-26T11:51:37.334Z,98027.06
2023-03-26T11:54:09.005Z,98033.81
2023-03-26T11:57:05.546Z,98033.53
2023-03-26T11:59:56.582Z,98043.00
2023-03-26T12:02:34.256Z,98044.53
2023-03-26T12:05:14.839Z,98045.28
2023-03-26T12:07:53.025Z,98044.97
2023-03-26T12:10:30.165Z,98037.91
2023-03-26T12:13:03.132Z,98044.00
2023-03-26T12:15:33.326Z,98047.47
2023-03-26T12:18:25.264Z,98050.69
2023-03-26T12:21:19.142Z,98052.72
2023-03-26T12:24:02.408Z,98053.41
2023-03-26T12:26:41.741Z,98055.66
2023-03-26T12:29:17.927Z,98057.25
2023-03-26T12:32:14.082Z,98052.25
2023-03-26T12:34:41.653Z,98060.38
2023-03-26T12:37:35.712Z,98053.22
2023-03-26T12:40:25.604Z,98057.91
2023-03-26T12:44:47.439Z,98061.56
2023-03-26T12:45:44.752Z,98051.28
2023-03-26T12:48:15.812Z,98052.56
2023-03-26T12:50:57.301Z,98057.44
2023-03-26T12:53:44.617Z,98058.00
2023-03-26T12:56:23.521Z,98055.53
2023-03-26T12:59:07.184Z,98059.22
2023-03-26T13:01:46.147Z,98064.75
2023-03-26T13:04:34.167Z,98060.44
2023-03-26T13:07:16.231Z,98062.16
2023-03-26T13:09:53.142Z,98053.78
2023-03-26T13:12:40.982Z,98063.16
2023-03-26T13:15:37.006Z,98059.69
2023-03-26T13:18:25.998Z,98071.66
2023-03-26T13:21:31.942Z,98067.69
2023-03-26T13:24:01.496Z,98075.06
2023-03-26T13:27:17.789Z,98074.84
2023-03-26T13:29:56.318Z,98082.19
2023-03-26T13:33:02.718Z,98086.00
2023-03-26T13:36:10.191Z,98093.84
2023-03-26T13:38:44.816Z,98086.25
2023-03-26T13:42:05.370Z,98095.44
2023-03-26T13:44:46.939Z,98096.97
2023-03-26T13:47:18.719Z,98096.94
2023-03-26T13:49:58.710Z,98090.81
2023-03-26T13:52:41.401Z,98095.09
2023-03-26T13:55:32.471Z,98094.00
2023-03-26T13:58:11.548Z,98098.38
2023-03-26T14:01:05.753Z,98092.66
2023-03-26T14:03:42.941Z,98092.00
2023-03-26T14:06:36.738Z,98097.03
2023-03-26T14:09:18.982Z,98105.66
2023-03-26T14:12:03.837Z,98102.94
2023-03-26T14:14:48.539Z,98104.03
2023-03-26T14:17:28.554Z,98102.69
2023-03-26T14:20:02.547Z,98107.91
2023-03-26T14:22:44.082Z,98104.56
2023-03-26T14:25:26.226Z,98110.03
2023-03-26T14:28:10.891Z,98100.81
2023-03-26T14:31:08.137Z,98104.72
2023-03-26T14:33:52.829Z,98113.91
2023-03-26T14:36:38.971Z,98129.09
2023-03-26T14:39:25.203Z,98111.88
2023-03-26T14:41:56.818Z,98105.44
2023-03-26T14:44:47.740Z,98108.41
2023-03-26T14:47:25.121Z,98106.53
2023-03-26T14:50:13.947Z,98108.66
2023-03-26T14:52:50.503Z,98112.16
2023-03-26T14:55:45.386Z,98103.78
2023-03-26T14:58:23.841Z,98107.63
2023-03-26T15:01:16.015Z,98109.13
2023-03-26T15:04:18.627Z,98104.16
2023-03-26T15:07:22.243Z,98107.09
2023-03-26T15:10:17.008Z,98115.72
2023-03-26T15:13:03.570Z,98117.88
2023-03-26T15:15:54.087Z,98121.25
2023-03-26T15:18:39.903Z,98120.56
2023-03-26T15:21:20.177Z,98119.91
2023-03-26T15:24:05.150Z,98122.72
2023-03-26T15:27:03.780Z,98139.75
2023-03-26T15:29:45.961Z,98139.56
2023-03-26T15:32:42.081Z,98141.91
2023-03-26T15:35:27.837Z,98144.63
2023-03-26T15:37:58.722Z,98149.97
2023-03-26T15:40:56.100Z,98145.97
2023-03-26T15:43:27.742Z,98151.84
2023-03-26T15:46:09.838Z,98141.41
2023-03-26T15:48:42.608Z,98154.31
2023-03-26T15:51:30.761Z,98154.78
2023-03-26T15:54:29.922Z,98158.56
2023-03-26T15:57:16.748Z,98157.50
2023-03-26T15:59:49.385Z,98166.03
2023-03-26T16:02:18.814Z,98161.25
2023-03-26T16:04:54.448Z,98165.72
2023-03-26T16:07:29.638Z,98166.06
2023-03-26T16:10:19.526Z,98167.38
2023-03-26T16:13:24.981Z,98173.81
2023-03-26T16:16:09.525Z,98175.69
2023-03-26T16:18:41.134Z,98171.41
2023-03-26T16:21:36.400Z,98177.84
2023-03-26T16:24:03.115Z,98178.88
2023-03-26T16:27:08.193Z,98175.97
2023-03-26T16:30:01.240Z,98189.84
2023-03-26T16:32:36.516Z,98187.97
2023-03-26T16:35:15.883Z,98195.97
2023-03-26T16:37:50.109Z,98193.81
2023-03-26T16:40:16.891Z,98197.06
2023-03-26T16:43:08.274Z,98195.44
2023-03-26T16:45:58.053Z,98204.75
2023-03-26T16:48:57.260Z,98211.69
2023-03-26T16:51:39.211Z,98211.19
2023-03-26T16:54:28.143Z,98213.03
2023-03-26T16:57:28.141Z,98219.97
2023-03-26T17:00:23.422Z,98222.63
2023-03-26T17:03:13.055Z,98219.94
2023-03-26T17:05:56.660Z,98230.06
2023-03-26T17:08:49.234Z,98229.50
2023-03-26T17:11:27.777Z,98229.28
2023-03-26T17:14:07.506Z,98235.34
2023-03-26T17:16:47.788Z,98234.84
2023-03-26T17:19:36.005Z,98232.19
2023-03-26T17:22:57.954Z,98234.03
2023-03-26T17:25:36.683Z,98231.91
2023-03-26T17:28:18.158Z,98246.25
2023-03-26T17:31:16.699Z,98241.75
2023-03-26T17:33:44.002Z,98249.44
2023-03-26T17:36:18.524Z,98253.16
2023-03-26T17:38:48.041Z,98250.81
2023-03-26T17:41:35.788Z,98254.47
2023-03-26T17:44:25.798Z,98259.75
2023-03-26T17:46:57.115Z,98267.25
2023-03-26T17:49:31.923Z,98251.78
2023-03-26T17:52:01.065Z,98251.78
2023-03-26T17:54:34.664Z,98262.44
2023-03-26T17:57:06.774Z,98258.09
2023-03-26T17:59:38.131Z,98268.25
2023-03-26T18:02:16.434Z,98255.97
2023-03-26T18:04:47.780Z,98262.25
2023-03-26T18:07:28.469Z,98261.81
2023-03-26T18:10:13.045Z,98263.19
2023-03-26T18:12:58.121Z,98262.13
2023-03-26T18:15:30.473Z,98261.13
2023-03-26T18:18:09.644Z,98256.69
2023-03-26T18:20:37.675Z,98255.16
2023-03-26T18:23:20.768Z,98261.53
2023-03-26T18:25:57.288Z,98261.78
2023-03-26T18:28:41.140Z,98260.19
2023-03-26T18:31:17.073Z,98259.13
2023-03-26T18:33:46.700Z,98253.78
2023-03-26T18:36:16.208Z,98249.66
2023-03-26T18:38:43.228Z,98258.16
2023-03-26T18:41:22.661Z,98261.19
2023-03-26T18:43:49.581Z,98266.00
2023-03-26T18:46:17.009Z,98272.34
2023-03-26T18:48:45.575Z,98272.66
2023-03-26T18:51:12.567Z,98265.56
2023-03-26T18:53:49.180Z,98269.66
2023-03-26T18:56:38.578Z,98269.16
2023-03-26T18:59:28.192Z,98250.38
2023-03-26T19:01:57.724Z,98257.53
2023-03-26T19:04:26.622Z,98246.53
2023-03-26T19:06:54.865Z,98239.13
2023-03-26T19:09:32.009Z,98227.84
2023-03-26T19:12:14.588Z,98215.66
2023-03-26T19:15:03.709Z,98197.13
2023-03-26T19:17:37.886Z,98196.19
2023-03-26T19:20:09.778Z,98192.84
2023-03-26T19:22:36.781Z,98192.75
2023-03-26T19:25:04.623Z,98183.31
2023-03-26T19:27:31.635Z,98169.47
2023-03-26T19:29:59.940Z,98158.31
2023-03-26T19:32:32.836Z,98166.13
2023-03-26T19:35:02.173Z,98169.16
2023-03-26T19:37:30.818Z,98190.09
2023-03-26T19:40:17.753Z,98199.03
2023-03-26T19:42:45.192Z,98200.19
2023-03-26T19:45:18.823Z,98204.63
2023-03-26T19:47:48.623Z,98190.97
2023-03-26T19:50:29.580Z,98186.25
2023-03-26T19:53:38.514Z,98204.25
2023-03-26T19:56:09.674Z,98215.19
2023-03-26T19:58:36.528Z,98225.47
2023-03-26T20:01:04.609Z,98212.00
2023-03-26T20:03:43.037Z,98190.16
2023-03-26T20:06:14.778Z,98191.59
2023-03-26T20:08:42.941Z,98200.78
2023-03-26T20:11:18.031Z,98203.06
2023-03-26T20:13:45.821Z,98189.16
2023-03-26T20:16:24.632Z,98183.47
2023-03-26T20:18:51.359Z,98178.84
2023-03-26T20:21:18.075Z,98165.19
2023-03-26T20:23:44.861Z,98182.22
2023-03-26T20:26:13.578Z,98182.50
2023-03-26T20:28:47.497Z,98179.94
2023-03-26T20:31:22.195Z,98190.03
2023-03-26T20:33:50.665Z,98182.78
2023-03-26T20:36:33.438Z,98177.81
2023-03-26T20:39:08.500Z,98180.72
2023-03-26T20:41:38.135Z,98190.31
2023-03-26T20:44:15.148Z,98188.19
2023-03-26T20:46:43.694Z,98183.66
2023-03-26T20:49:11.445Z,98175.16
2023-03-26T20:51:39.288Z,98180.72
2023-03-26T20:54:09.239Z,98177.44
2023-03-26T20:56:37.650Z,98177.22
2023-03-26T20:59:11.154Z,98161.91
2023-03-26T21:01:38.568Z,98153.25
2023-03-26T21:04:06.161Z,98162.78
2023-03-26T21:06:32.825Z,98175.13
2023-03-26T21:08:59.836Z,98181.22
2023-03-26T21:11:45.505Z,98175.06
2023-03-26T21:14:41.038Z,98172.78
2023-03-26T21:17:17.649Z,98161.28
2023-03-26T21:19:45.814Z,98154.28
2023-03-26T21:22:38.557Z,98162.22
2023-03-26T21:25:17.315Z,98167.84
2023-03-26T21:28:17.257Z,98165.88
2023-03-26T21:30:44.259Z,98181.63
2023-03-26T21:33:10.855Z,98165.09
2023-03-26T21:35:38.379Z,98172.63
2023-03-26T21:38:05.509Z,98177.09
2023-03-26T21:40:33.113Z,98175.47
2023-03-26T21:43:00.260Z,98172.72
2023-03-26T21:45:27.834Z,98177.19
2023-03-26T21:47:54.816Z,98178.16
2023-03-26T21:50:23.577Z,98182.25
2023-03-26T21:52:51.448Z,98189.53
2023-03-26T21:55:20.317Z,98186.06
2023-03-26T21:58:07.349Z,98189.53
2023-03-26T22:01:03.735Z,98189.41
2023-03-26T22:04:03.389Z,98189.53
2023-03-26T22:07:08.477Z,98177.69
2023-03-26T22:09:36.385Z,98183.22
2023-03-26T22:12:04.608Z,98189.06
2023-03-26T22:14:31.370Z,98191.00
2023-03-26T22:16:57.984Z,98197.78
2023-03-26T22:19:26.946Z,98194.81
2023-03-26T22:21:54.835Z,98194.22
2023-03-26T22:24:21.763Z,98202.00
2023-03-26T22:26:48.496Z,98204.66
2023-03-26T22:29:15.767Z,98211.09
2023-03-26T22:31:42.788Z,98200.44
2023-03-26T22:34:09.478Z,98206.06
2023-03-26T22:36:37.316Z,98209.41
2023-03-26T22:39:07.054Z,98219.16
2023-03-26T22:41:33.650Z,98210.88
2023-03-26T22:44:09.354Z,98212.38
2023-03-26T22:46:40.358Z,98208.34
2023-03-26T22:49:07.458Z,98197.34
2023-03-26T22:51:34.109Z,98208.81
2023-03-26T22:54:01.209Z,98208.22
2023-03-26T22:56:28.425Z,98201.00
2023-03-26T22:58:55.089Z,98204.19
2023-03-26T23:01:24.114Z,98218.00
2023-03-26T23:03:51.333Z,98223.19
2023-03-26T23:06:18.080Z,98223.50
2023-03-26T23:08:44.863Z,98228.25
2023-03-26T23:11:13.926Z,98226.03
2023-03-26T23:13:41.381Z,98219.63
2023-03-26T23:16:10.125Z,98225.13
2023-03-26T23:18:38.085Z,98224.19
2023-03-26T23:21:11.898Z,98225.81
2023-03-26T23:23:39.768Z,98220.44
2023-03-26T23:26:07.021Z,98222.38
2023-03-26T23:28:34.884Z,98222.81
2023-03-26T23:31:04.395Z,98221.44
2023-03-26T23:33:35.199Z,98226.47
2023-03-26T23:36:08.869Z,98236.59
2023-03-26T23:38:44.061Z,98232.56
2023-03-26T23:41:15.338Z,98236.38
2023-03-26T23:43:54.850Z,98229.03
2023-03-26T23:46:24.770Z,98231.66
2023-03-26T23:48:52.294Z,98231.53
2023-03-26T23:51:20.217Z,98238.66
2023-03-26T23:53:49.241Z,98242.00
2023-03-26T23:56:16.363Z,98249.00
2023-03-26T23:58:43.202Z,98250.72
